createdAt,value
2023-04-29T00:04:17.268Z,93194.95
2023-04-29T00:09:24.863Z,93203.44
2023-04-29T00:14:31.772Z,93192.05
2023-04-29T00:19:39.050Z,93197.66
2023-04-29T00:24:46.442Z,93208.02
2023-04-29T00:29:53.614Z,93209.41
2023-04-29T00:35:02.209Z,93206.34
2023-04-29T00:40:10.547Z,93192.51
2023-04-29T00:45:17.405Z,93187.53
2023-04-29T00:50:25.058Z,93180.41
2023-04-29T00:55:34.535Z,93192.87
2023-04-29T01:00:41.987Z,93196.34
2023-04-29T01:05:52.528Z,93195.20
2023-04-29T01:11:07.579Z,93229.41
2023-04-29T01:16:25.030Z,93194.17
2023-04-29T01:21:32.304Z,93192.27
2023-04-29T01:26:40.031Z,93199.97
2023-04-29T01:31:54.206Z,93209.02
2023-04-29T01:37:23.765Z,93206.73
2023-04-29T01:42:38.167Z,93217.30
2023-04-29T01:47:47.705Z,93219.03
2023-04-29T01:52:54.986Z,93222.25
2023-04-29T01:58:01.797Z,93216.09
2023-04-29T02:03:08.699Z,93208.46
2023-04-29T02:08:15.669Z,93213.09
2023-04-29T02:13:22.577Z,93209.37
2023-04-29T02:18:29.310Z,93208.69
2023-04-29T02:23:37.250Z,93207.06
2023-04-29T02:28:44.641Z,93209.43
2023-04-29T02:33:51.660Z,93215.11
2023-04-29T02:39:00.498Z,93217.27
2023-04-29T02:44:07.563Z,93234.03
2023-04-29T02:49:15.886Z,93221.30
2023-04-29T02:54:22.952Z,93223.45
2023-04-29T02:59:29.753Z,93234.34
2023-04-29T03:04:36.851Z,93238.65
2023-04-29T03:09:43.967Z,93229.92
2023-04-29T03:14:50.820Z,93238.65
2023-04-29T03:19:57.536Z,93227.52
2023-04-29T03:25:05.504Z,93229.44
2023-04-29T03:30:12.850Z,93225.30
2023-04-29T03:35:19.529Z,93226.34
2023-04-29T03:40:26.381Z,93216.75
2023-04-29T03:45:33.422Z,93216.61
2023-04-29T03:50:40.350Z,93221.03
2023-04-29T03:55:47.367Z,93218.96
2023-04-29T04:00:54.402Z,93213.64
2023-04-29T04:06:01.226Z,93219.98
2023-04-29T04:11:09.942Z,93216.27
2023-04-29T04:16:17.221Z,93217.30
2023-04-29T04:21:24.278Z,93222.33
2023-04-29T04:26:31.447Z,93214.17
2023-04-29T04:31:38.848Z,93222.64
2023-04-29T04:36:46.045Z,93222.30
2023-04-29T04:41:52.934Z,93216.16
2023-04-29T04:47:01.529Z,93230.50
2023-04-29T04:52:08.595Z,93234.70
2023-04-29T04:57:15.302Z,93221.16
2023-04-29T05:02:22.262Z,93220.94
2023-04-29T05:07:29.250Z,93217.61
2023-04-29T05:12:36.466Z,93217.91
2023-04-29T05:17:43.766Z,93224.70
2023-04-29T05:22:50.565Z,93226.66
2023-04-29T05:27:57.429Z,93228.69
2023-04-29T05:33:04.293Z,93227.13
2023-04-29T05:38:11.213Z,93235.02
2023-04-29T05:43:18.013Z,93244.20
2023-04-29T05:48:25.428Z,93261.09
2023-04-29T05:53:33.517Z,93257.50
2023-04-29T05:58:40.591Z,93258.21
2023-04-29T06:03:47.541Z,93250.33
2023-04-29T06:08:54.516Z,93261.96
2023-04-29T06:14:01.324Z,93274.01
2023-04-29T06:19:08.128Z,93277.26
2023-04-29T06:24:15.133Z,93273.50
2023-04-29T06:29:21.891Z,93282.89
2023-04-29T06:34:28.754Z,93271.52
2023-04-29T06:39:35.613Z,93267.56
2023-04-29T06:44:42.480Z,93271.85
2023-04-29T06:49:49.345Z,93272.38
2023-04-29T06:54:56.169Z,93270.70
2023-04-29T07:00:05.574Z,93278.33
2023-04-29T07:05:13.047Z,93274.64
2023-04-29T07:10:20.001Z,93281.20
2023-04-29T07:15:27.049Z,93283.28
2023-04-29T07:20:34.549Z,93279.83
2023-04-29T07:25:41.912Z,93271.64
2023-04-29T07:30:48.726Z,93280.66
2023-04-29T07:35:56.187Z,93288.88
2023-04-29T07:41:04.844Z,93284.92
2023-04-29T07:46:12.197Z,93286.34
2023-04-29T07:51:19.076Z,93295.09
2023-04-29T07:56:27.125Z,93291.48
2023-04-29T08:01:34.740Z,93303.44
2023-04-29T08:06:42.580Z,93298.95
2023-04-29T08:11:49.766Z,93308.91
2023-04-29T08:16:56.993Z,93316.11
2023-04-29T08:22:05.047Z,93325.50
2023-04-29T08:27:12.121Z,93331.92
2023-04-29T08:32:19.045Z,93330.73
2023-04-29T08:37:26.107Z,93328.19
2023-04-29T08:42:38.283Z,93346.41
2023-04-29T08:47:46.036Z,93332.55
2023-04-29T08:52:53.661Z,93333.69
2023-04-29T08:58:00.715Z,93331.81
2023-04-29T09:03:21.647Z,93333.13
2023-04-29T09:08:29.015Z,93315.32
2023-04-29T09:13:35.955Z,93306.78
2023-04-29T09:18:55.043Z,93305.88
2023-04-29T09:24:05.174Z,93297.55
2023-04-29T09:29:18.817Z,93301.69
2023-04-29T09:34:39.258Z,93295.80
2023-04-29T09:39:45.883Z,93293.39
2023-04-29T09:44:53.381Z,93282.22
2023-04-29T09:50:05.243Z,93294.76
2023-04-29T09:55:14.472Z,93298.01
2023-04-29T10:00:21.636Z,93300.41
2023-04-29T10:05:31.321Z,93292.53
2023-04-29T10:10:38.480Z,93296.52
2023-04-29T10:15:51.517Z,93287.42
2023-04-29T10:21:02.113Z,93277.15
2023-04-29T10:26:11.187Z,93274.87
2023-04-29T10:31:20.463Z,93269.26
2023-04-29T10:36:32.585Z,93269.02
2023-04-29T10:41:49.343Z,93264.61
2023-04-29T10:47:21.820Z,93259.44
2023-04-29T10:52:30.409Z,93260.95
2023-04-29T10:57:38.696Z,93256.50
2023-04-29T11:02:45.843Z,93251.52
2023-04-29T11:07:57.349Z,93255.27
2023-04-29T11:13:30.522Z,93251.91
2023-04-29T11:18:40.829Z,93248.01
2023-04-29T11:23:48.225Z,93242.50
2023-04-29T11:28:56.107Z,93227.12
2023-04-29T11:34:05.176Z,93223.83
2023-04-29T11:39:12.380Z,93217.42
2023-04-29T11:44:24.949Z,93212.13
2023-04-29T11:49:38.307Z,93213.83
2023-04-29T11:54:45.237Z,93199.39
2023-04-29T11:59:51.956Z,93198.66
2023-04-29T12:04:59.061Z,93194.59
2023-04-29T12:10:12.493Z,93200.76
2023-04-29T12:15:19.397Z,93194.00
2023-04-29T12:20:28.323Z,93187.48
2023-04-29T12:25:36.071Z,93195.70
2023-04-29T12:30:42.900Z,93196.95
2023-04-29T12:35:51.117Z,93191.39
2023-04-29T12:41:00.391Z,93199.05
2023-04-29T12:46:09.458Z,93186.20
2023-04-29T12:51:18.381Z,93182.73
2023-04-29T12:56:25.429Z,93196.53
2023-04-29T13:01:32.880Z,93197.20
2023-04-29T13:06:41.252Z,93200.11
2023-04-29T13:11:48.009Z,93202.44
2023-04-29T13:16:54.786Z,93206.60
2023-04-29T13:22:01.946Z,93201.69
2023-04-29T13:27:09.021Z,93207.68
2023-04-29T13:32:18.498Z,93201.69
2023-04-29T13:37:25.518Z,93197.73
2023-04-29T13:47:57.557Z,93190.03
2023-04-29T13:53:18.271Z,93190.88
2023-04-29T14:03:05.238Z,93198.16
2023-04-29T14:08:11.926Z,93197.11
2023-04-29T14:13:18.929Z,93193.50
2023-04-29T14:18:28.065Z,93188.05
2023-04-29T14:23:34.955Z,93197.95
2023-04-29T14:28:41.990Z,93196.11
2023-04-29T14:33:50.697Z,93188.09
2023-04-29T14:38:57.910Z,93189.94
2023-04-29T14:44:05.131Z,93195.96
2023-04-29T14:49:12.033Z,93195.81
2023-04-29T14:54:19.468Z,93196.13
2023-04-29T14:59:28.075Z,93190.02
2023-04-29T15:04:35.543Z,93184.34
2023-04-29T15:09:46.178Z,93185.53
2023-04-29T15:14:53.952Z,93188.14
2023-04-29T15:20:01.481Z,93189.91
2023-04-29T15:25:11.157Z,93190.53
2023-04-29T15:30:18.297Z,93061.45
2023-04-29T15:35:25.339Z,93188.26
2023-04-29T15:40:32.095Z,93188.05
2023-04-29T15:45:38.945Z,93193.64
2023-04-29T15:50:46.686Z,93195.93
2023-04-29T15:55:53.612Z,93199.63
2023-04-29T16:01:00.476Z,93196.25
2023-04-29T16:06:08.404Z,93200.80
2023-04-29T16:11:15.982Z,93210.86
2023-04-29T16:16:23.744Z,93223.28
2023-04-29T16:21:31.011Z,93217.15
2023-04-29T16:26:39.117Z,93220.91
2023-04-29T16:31:46.350Z,93235.41
2023-04-29T16:36:54.160Z,93239.44
2023-04-29T16:42:01.365Z,93244.80
2023-04-29T16:47:08.186Z,93264.68
2023-04-29T16:52:15.234Z,93262.63
2023-04-29T16:57:22.423Z,93271.87
2023-04-29T17:02:29.596Z,93270.73
2023-04-29T17:07:36.499Z,93276.72
2023-04-29T17:12:43.277Z,93289.42
2023-04-29T17:17:51.811Z,93298.47
2023-04-29T17:22:58.623Z,93309.91
2023-04-29T17:28:06.592Z,93319.72
2023-04-29T17:33:14.504Z,93326.90
2023-04-29T17:38:21.408Z,93331.92
2023-04-29T17:43:28.237Z,93337.38
2023-04-29T17:48:34.909Z,93337.78
2023-04-29T17:53:41.821Z,93333.13
2023-04-29T17:58:48.716Z,93331.69
2023-04-29T18:03:55.621Z,93332.53
2023-04-29T18:09:02.516Z,93334.84
2023-04-29T18:14:09.255Z,93332.96
2023-04-29T18:19:16.003Z,93335.55
2023-04-29T18:24:23.047Z,93339.07
2023-04-29T18:29:29.826Z,93346.84
2023-04-29T18:34:37.968Z,93351.27
2023-04-29T18:39:45.320Z,93349.52
2023-04-29T18:44:52.290Z,93355.92
2023-04-29T18:49:59.084Z,93359.57
2023-04-29T18:55:06.860Z,93371.86
2023-04-29T19:00:16.818Z,93380.19
2023-04-29T19:05:23.901Z,93382.70
2023-04-29T19:10:31.858Z,93390.09
2023-04-29T19:15:39.727Z,93389.34
2023-04-29T19:20:47.148Z,93407.50
2023-04-29T19:25:54.155Z,93406.07
2023-04-29T19:31:00.922Z,93424.97
2023-04-29T19:36:07.856Z,93424.34
2023-04-29T19:41:15.775Z,93432.52
2023-04-29T19:46:22.742Z,93435.86
2023-04-29T19:51:29.692Z,93438.70
2023-04-29T19:56:36.811Z,93442.86
2023-04-29T20:01:43.975Z,93444.11
2023-04-29T20:06:51.008Z,93429.38
2023-04-29T20:11:57.760Z,93440.90
2023-04-29T20:17:04.508Z,93448.13
2023-04-29T20:22:11.262Z,93447.99
2023-04-29T20:27:18.029Z,93452.56
2023-04-29T20:32:24.840Z,93447.47
2023-04-29T20:37:32.136Z,93457.03
2023-04-29T20:42:38.908Z,93459.39
2023-04-29T20:47:46.020Z,93469.51
2023-04-29T20:52:54.079Z,93473.08
2023-04-29T20:58:00.970Z,93479.66
2023-04-29T21:03:08.129Z,93490.92
2023-04-29T21:08:15.444Z,93323.69
2023-04-29T21:13:22.437Z,93482.31
2023-04-29T21:18:29.511Z,93481.03
2023-04-29T21:23:36.774Z,93488.77
2023-04-29T21:28:43.910Z,93488.00
2023-04-29T21:33:51.106Z,93493.33
2023-04-29T21:38:58.007Z,93489.59
2023-04-29T21:44:06.130Z,93491.27
2023-04-29T21:49:13.138Z,93489.05
2023-04-29T21:54:19.963Z,93485.34
2023-04-29T21:59:26.758Z,93485.84
2023-04-29T22:04:33.625Z,93485.26
2023-04-29T22:09:40.372Z,93495.27
2023-04-29T22:14:47.270Z,93495.55
2023-04-29T22:19:54.964Z,93497.02
2023-04-29T22:25:02.423Z,93505.72
2023-04-29T22:30:10.290Z,93498.42
2023-04-29T22:35:17.117Z,93511.45
2023-04-29T22:40:24.342Z,93505.67
2023-04-29T22:45:32.549Z,93524.09
2023-04-29T22:50:40.961Z,93526.85
2023-04-29T22:56:02.929Z,93523.47
2023-04-29T23:01:11.763Z,93528.22
2023-04-29T23:06:18.483Z,93524.75
2023-04-29T23:11:27.178Z,93528.80
2023-04-29T23:16:34.288Z,93531.02
2023-04-29T23:21:41.300Z,93534.88
2023-04-29T23:26:49.867Z,93534.62
2023-04-29T23:31:56.628Z,93538.63
2023-04-29T23:37:03.807Z,93531.95
2023-04-29T23:42:10.935Z,93531.09
2023-04-29T23:47:18.151Z,93526.08
2023-04-29T23:52:25.673Z,93523.13
2023-04-29T23:57:32.644Z,93520.02
